sensor_id;sensor_type;location;lat;lon;timestamp;P1;durP1;ratioP1;P2;durP2;ratioP2
66374;SDS011;53173;52.176;5.314;2023-05-10T00:00:46;26.58;;;18.15;;
66374;SDS011;53173;52.176;5.314;2023-05-10T00:03:13;26.63;;;18.40;;
66374;SDS011;53173;52.176;5.314;2023-05-10T00:05:40;27.70;;;18.42;;
66374;SDS011;53173;52.176;5.314;2023-05-10T00:08:07;33.20;;;19.85;;
66374;SDS011;53173;52.176;5.314;2023-05-10T00:10:34;25.30;;;18.00;;
66374;SDS011;53173;52.176;5.314;2023-05-10T00:13:07;26.60;;;19.25;;
66374;SDS011;53173;52.176;5.314;2023-05-10T00:15:34;34.90;;;20.45;;
66374;SDS011;53173;52.176;5.314;2023-05-10T00:18:01;30.25;;;20.20;;
66374;SDS011;53173;52.176;5.314;2023-05-10T00:20:28;30.02;;;20.33;;
66374;SDS011;53173;52.176;5.314;2023-05-10T00:22:55;27.55;;;18.15;;
66374;SDS011;53173;52.176;5.314;2023-05-10T00:25:22;24.80;;;18.02;;
66374;SDS011;53173;52.176;5.314;2023-05-10T00:27:50;29.58;;;19.25;;
66374;SDS011;53173;52.176;5.314;2023-05-10T00:30:18;31.13;;;19.05;;
66374;SDS011;53173;52.176;5.314;2023-05-10T00:32:45;26.02;;;18.52;;
66374;SDS011;53173;52.176;5.314;2023-05-10T00:35:14;27.48;;;18.35;;
66374;SDS011;53173;52.176;5.314;2023-05-10T00:37:42;28.63;;;18.20;;
66374;SDS011;53173;52.176;5.314;2023-05-10T00:40:09;32.00;;;17.58;;
66374;SDS011;53173;52.176;5.314;2023-05-10T00:42:36;27.73;;;16.95;;
66374;SDS011;53173;52.176;5.314;2023-05-10T00:45:05;30.42;;;16.60;;
66374;SDS011;53173;52.176;5.314;2023-05-10T00:47:32;98.60;;;18.63;;
66374;SDS011;53173;52.176;5.314;2023-05-10T00:50:01;41.35;;;22.20;;
66374;SDS011;53173;52.176;5.314;2023-05-10T00:52:28;34.55;;;22.25;;
66374;SDS011;53173;52.176;5.314;2023-05-10T00:54:57;38.67;;;23.23;;
66374;SDS011;53173;52.176;5.314;2023-05-10T00:57:24;42.28;;;24.98;;
66374;SDS011;53173;52.176;5.314;2023-05-10T00:59:51;42.35;;;25.58;;
66374;SDS011;53173;52.176;5.314;2023-05-10T01:02:18;48.47;;;27.02;;
66374;SDS011;53173;52.176;5.314;2023-05-10T01:04:45;48.88;;;28.25;;
66374;SDS011;53173;52.176;5.314;2023-05-10T01:07:13;53.88;;;29.40;;
66374;SDS011;53173;52.176;5.314;2023-05-10T01:09:39;54.28;;;29.92;;
66374;SDS011;53173;52.176;5.314;2023-05-10T01:12:06;53.35;;;30.90;;
66374;SDS011;53173;52.176;5.314;2023-05-10T01:14:34;59.35;;;32.50;;
66374;SDS011;53173;52.176;5.314;2023-05-10T01:17:02;65.40;;;32.22;;
66374;SDS011;53173;52.176;5.314;2023-05-10T01:19:31;64.45;;;33.03;;
66374;SDS011;53173;52.176;5.314;2023-05-10T01:22:25;65.47;;;32.95;;
66374;SDS011;53173;52.176;5.314;2023-05-10T01:33:47;64.22;;;33.53;;
66374;SDS011;53173;52.176;5.314;2023-05-10T01:36:32;57.20;;;31.48;;
66374;SDS011;53173;52.176;5.314;2023-05-10T01:41:55;68.00;;;34.03;;
66374;SDS011;53173;52.176;5.314;2023-05-10T01:47:43;62.63;;;31.85;;
66374;SDS011;53173;52.176;5.314;2023-05-10T01:50:15;78.77;;;37.33;;
66374;SDS011;53173;52.176;5.314;2023-05-10T01:52:47;71.53;;;34.35;;
66374;SDS011;53173;52.176;5.314;2023-05-10T01:55:21;77.45;;;35.58;;
66374;SDS011;53173;52.176;5.314;2023-05-10T01:57:52;68.45;;;34.38;;
66374;SDS011;53173;52.176;5.314;2023-05-10T02:00:25;82.07;;;37.55;;
66374;SDS011;53173;52.176;5.314;2023-05-10T02:02:53;79.35;;;36.40;;
66374;SDS011;53173;52.176;5.314;2023-05-10T02:05:21;83.03;;;37.22;;
66374;SDS011;53173;52.176;5.314;2023-05-10T02:07:49;84.85;;;35.95;;
66374;SDS011;53173;52.176;5.314;2023-05-10T02:10:17;78.65;;;35.83;;
66374;SDS011;53173;52.176;5.314;2023-05-10T02:12:46;68.95;;;33.53;;
66374;SDS011;53173;52.176;5.314;2023-05-10T02:15:16;68.90;;;34.47;;
66374;SDS011;53173;52.176;5.314;2023-05-10T02:17:47;75.38;;;35.33;;
66374;SDS011;53173;52.176;5.314;2023-05-10T02:20:15;78.50;;;34.80;;
66374;SDS011;53173;52.176;5.314;2023-05-10T02:22:43;74.72;;;35.38;;
66374;SDS011;53173;52.176;5.314;2023-05-10T02:25:13;81.25;;;36.40;;
66374;SDS011;53173;52.176;5.314;2023-05-10T02:27:42;79.13;;;35.42;;
66374;SDS011;53173;52.176;5.314;2023-05-10T02:30:10;73.88;;;35.53;;
66374;SDS011;53173;52.176;5.314;2023-05-10T02:32:38;83.60;;;35.63;;
66374;SDS011;53173;52.176;5.314;2023-05-10T02:35:06;93.75;;;36.92;;
66374;SDS011;53173;52.176;5.314;2023-05-10T02:37:34;99.82;;;37.97;;
66374;SDS011;53173;52.176;5.314;2023-05-10T02:40:03;77.90;;;33.17;;
66374;SDS011;53173;52.176;5.314;2023-05-10T02:42:32;93.90;;;38.03;;
66374;SDS011;53173;52.176;5.314;2023-05-10T02:45:05;85.68;;;34.42;;
66374;SDS011;53173;52.176;5.314;2023-05-10T02:47:37;96.87;;;39.13;;
66374;SDS011;53173;52.176;5.314;2023-05-10T02:50:04;101.55;;;38.10;;
66374;SDS011;53173;52.176;5.314;2023-05-10T02:52:36;95.45;;;36.00;;
66374;SDS011;53173;52.176;5.314;2023-05-10T02:55:25;89.63;;;34.55;;
66374;SDS011;53173;52.176;5.314;2023-05-10T02:57:59;92.32;;;34.80;;
66374;SDS011;53173;52.176;5.314;2023-05-10T03:00:27;97.50;;;36.25;;
66374;SDS011;53173;52.176;5.314;2023-05-10T03:02:54;91.18;;;35.60;;
66374;SDS011;53173;52.176;5.314;2023-05-10T03:05:21;92.43;;;34.90;;
66374;SDS011;53173;52.176;5.314;2023-05-10T03:07:48;95.38;;;35.53;;
66374;SDS011;53173;52.176;5.314;2023-05-10T03:10:15;99.28;;;36.58;;
66374;SDS011;53173;52.176;5.314;2023-05-10T03:15:35;105.45;;;36.95;;
66374;SDS011;53173;52.176;5.314;2023-05-10T03:18:09;104.05;;;37.40;;
66374;SDS011;53173;52.176;5.314;2023-05-10T03:20:43;111.50;;;40.53;;
66374;SDS011;53173;52.176;5.314;2023-05-10T03:23:36;109.85;;;38.65;;
66374;SDS011;53173;52.176;5.314;2023-05-10T03:26:07;100.32;;;36.40;;
66374;SDS011;53173;52.176;5.314;2023-05-10T03:28:35;121.20;;;41.75;;
66374;SDS011;53173;52.176;5.314;2023-05-10T03:31:04;120.03;;;41.15;;
66374;SDS011;53173;52.176;5.314;2023-05-10T03:33:32;98.82;;;36.25;;
66374;SDS011;53173;52.176;5.314;2023-05-10T03:35:59;103.53;;;39.10;;
66374;SDS011;53173;52.176;5.314;2023-05-10T03:38:26;93.60;;;36.28;;
66374;SDS011;53173;52.176;5.314;2023-05-10T03:40:56;112.97;;;41.45;;
66374;SDS011;53173;52.176;5.314;2023-05-10T03:43:23;111.80;;;41.78;;
66374;SDS011;53173;52.176;5.314;2023-05-10T03:45:51;129.88;;;42.13;;
66374;SDS011;53173;52.176;5.314;2023-05-10T03:48:17;111.47;;;39.83;;
66374;SDS011;53173;52.176;5.314;2023-05-10T03:50:45;111.68;;;41.78;;
66374;SDS011;53173;52.176;5.314;2023-05-10T03:53:12;103.03;;;40.03;;
66374;SDS011;53173;52.176;5.314;2023-05-10T03:55:39;107.13;;;37.65;;
66374;SDS011;53173;52.176;5.314;2023-05-10T03:58:06;101.82;;;40.00;;
66374;SDS011;53173;52.176;5.314;2023-05-10T04:00:37;135.38;;;44.47;;
66374;SDS011;53173;52.176;5.314;2023-05-10T04:03:10;120.03;;;42.83;;
66374;SDS011;53173;52.176;5.314;2023-05-10T04:05:38;113.75;;;40.50;;
66374;SDS011;53173;52.176;5.314;2023-05-10T04:08:05;125.63;;;44.30;;
66374;SDS011;53173;52.176;5.314;2023-05-10T04:10:32;120.72;;;43.50;;
66374;SDS011;53173;52.176;5.314;2023-05-10T04:12:59;102.30;;;37.67;;
66374;SDS011;53173;52.176;5.314;2023-05-10T04:15:26;106.30;;;40.58;;
66374;SDS011;53173;52.176;5.314;2023-05-10T04:17:53;97.65;;;38.97;;
66374;SDS011;53173;52.176;5.314;2023-05-10T04:20:20;90.60;;;36.13;;
66374;SDS011;53173;52.176;5.314;2023-05-10T04:22:46;81.55;;;35.20;;
66374;SDS011;53173;52.176;5.314;2023-05-10T04:25:13;86.95;;;35.85;;
66374;SDS011;53173;52.176;5.314;2023-05-10T04:27:40;87.03;;;37.35;;
66374;SDS011;53173;52.176;5.314;2023-05-10T04:30:07;90.78;;;35.25;;
66374;SDS011;53173;52.176;5.314;2023-05-10T04:32:35;92.43;;;37.70;;
66374;SDS011;53173;52.176;5.314;2023-05-10T04:35:02;93.85;;;36.05;;
66374;SDS011;53173;52.176;5.314;2023-05-10T04:37:30;91.10;;;38.13;;
66374;SDS011;53173;52.176;5.314;2023-05-10T04:39:57;84.75;;;35.95;;
66374;SDS011;53173;52.176;5.314;2023-05-10T04:42:26;96.70;;;38.83;;
66374;SDS011;53173;52.176;5.314;2023-05-10T04:44:52;83.28;;;34.30;;
66374;SDS011;53173;52.176;5.314;2023-05-10T04:47:19;95.38;;;39.78;;
66374;SDS011;53173;52.176;5.314;2023-05-10T04:49:46;87.78;;;37.72;;
66374;SDS011;53173;52.176;5.314;2023-05-10T04:52:13;108.75;;;39.97;;
66374;SDS011;53173;52.176;5.314;2023-05-10T04:54:41;109.95;;;42.72;;
66374;SDS011;53173;52.176;5.314;2023-05-10T04:57:08;97.47;;;40.10;;
66374;SDS011;53173;52.176;5.314;2023-05-10T04:59:35;106.30;;;41.33;;
66374;SDS011;53173;52.176;5.314;2023-05-10T05:02:03;110.72;;;42.65;;
66374;SDS011;53173;52.176;5.314;2023-05-10T05:04:31;102.10;;;39.65;;
66374;SDS011;53173;52.176;5.314;2023-05-10T05:06:58;98.40;;;38.47;;
66374;SDS011;53173;52.176;5.314;2023-05-10T05:09:25;87.43;;;37.80;;
66374;SDS011;53173;52.176;5.314;2023-05-10T05:11:52;90.70;;;36.08;;
66374;SDS011;53173;52.176;5.314;2023-05-10T05:14:19;82.28;;;34.92;;
66374;SDS011;53173;52.176;5.314;2023-05-10T05:16:47;88.55;;;37.50;;
66374;SDS011;53173;52.176;5.314;2023-05-10T05:19:14;81.47;;;34.03;;
66374;SDS011;53173;52.176;5.314;2023-05-10T05:21:41;83.60;;;32.95;;
66374;SDS011;53173;52.176;5.314;2023-05-10T05:24:08;87.35;;;35.15;;
66374;SDS011;53173;52.176;5.314;2023-05-10T05:26:36;80.55;;;34.35;;
66374;SDS011;53173;52.176;5.314;2023-05-10T05:29:03;93.75;;;37.33;;
66374;SDS011;53173;52.176;5.314;2023-05-10T05:31:30;85.35;;;35.38;;
66374;SDS011;53173;52.176;5.314;2023-05-10T05:33:57;79.38;;;36.25;;
66374;SDS011;53173;52.176;5.314;2023-05-10T05:36:24;77.38;;;34.03;;
66374;SDS011;53173;52.176;5.314;2023-05-10T05:38:51;71.97;;;33.72;;
66374;SDS011;53173;52.176;5.314;2023-05-10T05:41:17;65.72;;;31.85;;
66374;SDS011;53173;52.176;5.314;2023-05-10T05:43:44;76.95;;;34.50;;
66374;SDS011;53173;52.176;5.314;2023-05-10T05:46:11;76.97;;;33.33;;
66374;SDS011;53173;52.176;5.314;2023-05-10T05:48:38;72.47;;;33.58;;
66374;SDS011;53173;52.176;5.314;2023-05-10T05:51:05;58.05;;;31.58;;
66374;SDS011;53173;52.176;5.314;2023-05-10T05:53:32;74.47;;;36.25;;
66374;SDS011;53173;52.176;5.314;2023-05-10T05:55:59;69.15;;;31.70;;
66374;SDS011;53173;52.176;5.314;2023-05-10T05:58:26;64.40;;;31.08;;
66374;SDS011;53173;52.176;5.314;2023-05-10T06:00:54;52.65;;;25.73;;
66374;SDS011;53173;52.176;5.314;2023-05-10T06:03:21;58.28;;;28.10;;
66374;SDS011;53173;52.176;5.314;2023-05-10T06:05:48;48.58;;;23.98;;
66374;SDS011;53173;52.176;5.314;2023-05-10T06:08:14;54.38;;;27.50;;
66374;SDS011;53173;52.176;5.314;2023-05-10T06:10:41;43.42;;;24.77;;
66374;SDS011;53173;52.176;5.314;2023-05-10T06:13:08;40.83;;;23.23;;
66374;SDS011;53173;52.176;5.314;2023-05-10T06:15:36;44.55;;;24.27;;
66374;SDS011;53173;52.176;5.314;2023-05-10T06:18:03;31.42;;;18.65;;
66374;SDS011;53173;52.176;5.314;2023-05-10T06:20:30;24.40;;;15.30;;
66374;SDS011;53173;52.176;5.314;2023-05-10T06:22:57;30.42;;;17.92;;
66374;SDS011;53173;52.176;5.314;2023-05-10T06:25:25;34.38;;;18.42;;
66374;SDS011;53173;52.176;5.314;2023-05-10T06:27:52;29.25;;;16.83;;
66374;SDS011;53173;52.176;5.314;2023-05-10T06:30:24;29.55;;;16.98;;
66374;SDS011;53173;52.176;5.314;2023-05-10T06:32:54;31.88;;;18.42;;
66374;SDS011;53173;52.176;5.314;2023-05-10T06:35:21;25.52;;;15.68;;
66374;SDS011;53173;52.176;5.314;2023-05-10T06:37:48;22.83;;;15.95;;
66374;SDS011;53173;52.176;5.314;2023-05-10T06:40:16;23.13;;;13.55;;
66374;SDS011;53173;52.176;5.314;2023-05-10T06:42:43;22.15;;;15.18;;
66374;SDS011;53173;52.176;5.314;2023-05-10T06:45:11;26.33;;;15.65;;
66374;SDS011;53173;52.176;5.314;2023-05-10T06:47:39;23.88;;;14.48;;
66374;SDS011;53173;52.176;5.314;2023-05-10T06:50:07;21.75;;;13.77;;
66374;SDS011;53173;52.176;5.314;2023-05-10T06:52:35;25.77;;;15.05;;
66374;SDS011;53173;52.176;5.314;2023-05-10T06:55:02;29.70;;;14.98;;
66374;SDS011;53173;52.176;5.314;2023-05-10T06:57:30;22.92;;;14.20;;
66374;SDS011;53173;52.176;5.314;2023-05-10T06:59:58;23.90;;;14.23;;
66374;SDS011;53173;52.176;5.314;2023-05-10T07:02:25;25.60;;;13.13;;
66374;SDS011;53173;52.176;5.314;2023-05-10T07:04:52;20.00;;;12.30;;
66374;SDS011;53173;52.176;5.314;2023-05-10T07:07:19;19.02;;;12.15;;
66374;SDS011;53173;52.176;5.314;2023-05-10T07:09:46;23.27;;;12.27;;
66374;SDS011;53173;52.176;5.314;2023-05-10T07:12:13;20.45;;;13.70;;
66374;SDS011;53173;52.176;5.314;2023-05-10T07:14:41;24.20;;;13.68;;
66374;SDS011;53173;52.176;5.314;2023-05-10T07:17:08;24.05;;;14.10;;
66374;SDS011;53173;52.176;5.314;2023-05-10T07:19:36;29.13;;;14.02;;
66374;SDS011;53173;52.176;5.314;2023-05-10T07:22:03;23.73;;;13.73;;
66374;SDS011;53173;52.176;5.314;2023-05-10T07:24:35;26.70;;;14.90;;
66374;SDS011;53173;52.176;5.314;2023-05-10T07:27:02;23.35;;;15.07;;
66374;SDS011;53173;52.176;5.314;2023-05-10T07:29:29;27.05;;;14.35;;
66374;SDS011;53173;52.176;5.314;2023-05-10T07:31:56;23.75;;;14.73;;
66374;SDS011;53173;52.176;5.314;2023-05-10T07:34:24;25.52;;;14.07;;
66374;SDS011;53173;52.176;5.314;2023-05-10T07:36:51;23.65;;;14.02;;
66374;SDS011;53173;52.176;5.314;2023-05-10T07:39:19;22.70;;;13.50;;
66374;SDS011;53173;52.176;5.314;2023-05-10T07:41:53;16.87;;;12.30;;
66374;SDS011;53173;52.176;5.314;2023-05-10T07:44:21;20.23;;;12.05;;
66374;SDS011;53173;52.176;5.314;2023-05-10T07:46:48;19.20;;;13.00;;
66374;SDS011;53173;52.176;5.314;2023-05-10T07:49:15;18.15;;;12.75;;
66374;SDS011;53173;52.176;5.314;2023-05-10T07:51:42;19.73;;;12.98;;
66374;SDS011;53173;52.176;5.314;2023-05-10T07:54:09;21.35;;;13.45;;
66374;SDS011;53173;52.176;5.314;2023-05-10T07:56:36;20.73;;;14.00;;
66374;SDS011;53173;52.176;5.314;2023-05-10T07:59:03;22.55;;;14.02;;
66374;SDS011;53173;52.176;5.314;2023-05-10T08:01:33;21.67;;;13.45;;
66374;SDS011;53173;52.176;5.314;2023-05-10T08:04:00;23.10;;;14.05;;
66374;SDS011;53173;52.176;5.314;2023-05-10T08:06:28;19.40;;;12.88;;
66374;SDS011;53173;52.176;5.314;2023-05-10T08:08:56;23.85;;;14.82;;
66374;SDS011;53173;52.176;5.314;2023-05-10T08:11:24;24.52;;;13.63;;
66374;SDS011;53173;52.176;5.314;2023-05-10T08:13:51;19.00;;;14.50;;
66374;SDS011;53173;52.176;5.314;2023-05-10T08:16:19;19.42;;;14.30;;
66374;SDS011;53173;52.176;5.314;2023-05-10T08:18:46;20.25;;;13.98;;
66374;SDS011;53173;52.176;5.314;2023-05-10T08:21:14;19.52;;;14.57;;
66374;SDS011;53173;52.176;5.314;2023-05-10T08:23:46;21.65;;;14.70;;
66374;SDS011;53173;52.176;5.314;2023-05-10T08:26:13;20.38;;;13.88;;
66374;SDS011;53173;52.176;5.314;2023-05-10T08:28:40;19.50;;;12.88;;
66374;SDS011;53173;52.176;5.314;2023-05-10T08:31:07;18.25;;;13.93;;
66374;SDS011;53173;52.176;5.314;2023-05-10T08:33:44;17.73;;;13.73;;
66374;SDS011;53173;52.176;5.314;2023-05-10T08:36:11;19.20;;;14.98;;
66374;SDS011;53173;52.176;5.314;2023-05-10T08:38:40;17.40;;;12.60;;
66374;SDS011;53173;52.176;5.314;2023-05-10T08:41:07;20.20;;;12.65;;
66374;SDS011;53173;52.176;5.314;2023-05-10T08:43:50;19.70;;;13.77;;
66374;SDS011;53173;52.176;5.314;2023-05-10T08:46:22;13.77;;;10.00;;
66374;SDS011;53173;52.176;5.314;2023-05-10T08:48:50;15.18;;;10.50;;
66374;SDS011;53173;52.176;5.314;2023-05-10T08:51:19;13.93;;;10.75;;
66374;SDS011;53173;52.176;5.314;2023-05-10T08:56:41;7.95;;;7.25;;
66374;SDS011;53173;52.176;5.314;2023-05-10T08:59:08;7.85;;;6.05;;
66374;SDS011;53173;52.176;5.314;2023-05-10T09:01:35;6.18;;;5.45;;
66374;SDS011;53173;52.176;5.314;2023-05-10T09:07:06;6.15;;;4.30;;
66374;SDS011;53173;52.176;5.314;2023-05-10T09:09:33;4.97;;;4.28;;
66374;SDS011;53173;52.176;5.314;2023-05-10T09:12:01;6.82;;;4.15;;
66374;SDS011;53173;52.176;5.314;2023-05-10T09:14:28;4.97;;;4.47;;
66374;SDS011;53173;52.176;5.314;2023-05-10T09:16:55;9.02;;;5.35;;
66374;SDS011;53173;52.176;5.314;2023-05-10T09:19:22;6.82;;;5.63;;
66374;SDS011;53173;52.176;5.314;2023-05-10T09:21:49;5.88;;;5.22;;
66374;SDS011;53173;52.176;5.314;2023-05-10T09:27:47;5.90;;;4.53;;
66374;SDS011;53173;52.176;5.314;2023-05-10T09:30:23;5.85;;;4.85;;
66374;SDS011;53173;52.176;5.314;2023-05-10T09:32:52;8.15;;;6.88;;
66374;SDS011;53173;52.176;5.314;2023-05-10T09:35:20;9.13;;;7.95;;
66374;SDS011;53173;52.176;5.314;2023-05-10T09:37:51;9.32;;;7.43;;
66374;SDS011;53173;52.176;5.314;2023-05-10T09:40:21;9.27;;;7.25;;
66374;SDS011;53173;52.176;5.314;2023-05-10T09:42:57;10.05;;;7.25;;
66374;SDS011;53173;52.176;5.314;2023-05-10T09:45:28;7.90;;;7.10;;
66374;SDS011;53173;52.176;5.314;2023-05-10T09:47:57;9.40;;;6.57;;
66374;SDS011;53173;52.176;5.314;2023-05-10T09:50:25;8.95;;;6.60;;
66374;SDS011;53173;52.176;5.314;2023-05-10T09:55:21;9.80;;;7.88;;
66374;SDS011;53173;52.176;5.314;2023-05-10T09:57:58;10.95;;;8.05;;
66374;SDS011;53173;52.176;5.314;2023-05-10T10:00:26;10.75;;;8.60;;
66374;SDS011;53173;52.176;5.314;2023-05-10T10:02:55;11.35;;;8.30;;
66374;SDS011;53173;52.176;5.314;2023-05-10T10:05:29;9.05;;;8.05;;
66374;SDS011;53173;52.176;5.314;2023-05-10T10:07:58;10.35;;;8.13;;
66374;SDS011;53173;52.176;5.314;2023-05-10T10:10:26;10.35;;;7.85;;
66374;SDS011;53173;52.176;5.314;2023-05-10T10:12:54;10.23;;;7.13;;
66374;SDS011;53173;52.176;5.314;2023-05-10T10:15:21;11.20;;;6.97;;
66374;SDS011;53173;52.176;5.314;2023-05-10T10:17:49;7.85;;;7.15;;
66374;SDS011;53173;52.176;5.314;2023-05-10T10:20:17;9.85;;;8.02;;
66374;SDS011;53173;52.176;5.314;2023-05-10T10:22:46;9.80;;;8.10;;
66374;SDS011;53173;52.176;5.314;2023-05-10T10:25:14;11.18;;;8.05;;
66374;SDS011;53173;52.176;5.314;2023-05-10T10:30:41;7.85;;;7.07;;
66374;SDS011;53173;52.176;5.314;2023-05-10T10:35:52;8.23;;;7.13;;
66374;SDS011;53173;52.176;5.314;2023-05-10T10:38:20;8.02;;;6.60;;
66374;SDS011;53173;52.176;5.314;2023-05-10T10:40:47;8.20;;;7.35;;
66374;SDS011;53173;52.176;5.314;2023-05-10T10:46:11;8.45;;;6.97;;
66374;SDS011;53173;52.176;5.314;2023-05-10T10:48:49;6.90;;;6.20;;
66374;SDS011;53173;52.176;5.314;2023-05-10T10:51:38;7.63;;;6.68;;
66374;SDS011;53173;52.176;5.314;2023-05-10T10:54:13;6.82;;;6.22;;
66374;SDS011;53173;52.176;5.314;2023-05-10T10:57:10;7.78;;;6.97;;
66374;SDS011;53173;52.176;5.314;2023-05-10T10:59:41;8.45;;;7.53;;
66374;SDS011;53173;52.176;5.314;2023-05-10T11:02:10;8.48;;;7.45;;
66374;SDS011;53173;52.176;5.314;2023-05-10T11:04:57;10.52;;;7.28;;
66374;SDS011;53173;52.176;5.314;2023-05-10T11:07:25;8.15;;;6.93;;
66374;SDS011;53173;52.176;5.314;2023-05-10T11:09:53;8.38;;;6.60;;
66374;SDS011;53173;52.176;5.314;2023-05-10T11:12:21;8.48;;;6.13;;
66374;SDS011;53173;52.176;5.314;2023-05-10T11:14:56;10.02;;;6.63;;
66374;SDS011;53173;52.176;5.314;2023-05-10T11:17:24;6.53;;;5.85;;
66374;SDS011;53173;52.176;5.314;2023-05-10T11:20:06;8.25;;;5.80;;
66374;SDS011;53173;52.176;5.314;2023-05-10T11:22:52;11.65;;;5.70;;
66374;SDS011;53173;52.176;5.314;2023-05-10T11:25:23;9.02;;;5.90;;
66374;SDS011;53173;52.176;5.314;2023-05-10T11:27:52;9.60;;;6.32;;
66374;SDS011;53173;52.176;5.314;2023-05-10T11:30:19;6.68;;;5.93;;
66374;SDS011;53173;52.176;5.314;2023-05-10T11:32:47;6.28;;;5.32;;
66374;SDS011;53173;52.176;5.314;2023-05-10T11:35:14;5.82;;;5.15;;
66374;SDS011;53173;52.176;5.314;2023-05-10T11:37:41;7.32;;;5.25;;
66374;SDS011;53173;52.176;5.314;2023-05-10T11:40:10;6.20;;;5.40;;
66374;SDS011;53173;52.176;5.314;2023-05-10T11:42:37;8.40;;;4.95;;
66374;SDS011;53173;52.176;5.314;2023-05-10T11:45:05;9.68;;;5.55;;
66374;SDS011;53173;52.176;5.314;2023-05-10T11:47:32;7.60;;;5.95;;
66374;SDS011;53173;52.176;5.314;2023-05-10T11:50:02;10.45;;;5.95;;
66374;SDS011;53173;52.176;5.314;2023-05-10T11:52:29;6.25;;;5.30;;
66374;SDS011;53173;52.176;5.314;2023-05-10T11:55:01;6.15;;;5.25;;
66374;SDS011;53173;52.176;5.314;2023-05-10T11:57:28;6.50;;;5.57;;
66374;SDS011;53173;52.176;5.314;2023-05-10T11:59:57;9.15;;;5.72;;
66374;SDS011;53173;52.176;5.314;2023-05-10T12:02:24;6.90;;;6.20;;
66374;SDS011;53173;52.176;5.314;2023-05-10T12:04:52;6.10;;;5.50;;
66374;SDS011;53173;52.176;5.314;2023-05-10T12:07:21;9.57;;;6.00;;
66374;SDS011;53173;52.176;5.314;2023-05-10T12:10:04;7.28;;;5.75;;
66374;SDS011;53173;52.176;5.314;2023-05-10T12:15:18;7.18;;;5.00;;
66374;SDS011;53173;52.176;5.314;2023-05-10T12:17:46;4.80;;;4.03;;
66374;SDS011;53173;52.176;5.314;2023-05-10T12:20:19;4.18;;;3.55;;
66374;SDS011;53173;52.176;5.314;2023-05-10T12:22:52;6.05;;;3.30;;
66374;SDS011;53173;52.176;5.314;2023-05-10T12:25:29;3.78;;;2.63;;
66374;SDS011;53173;52.176;5.314;2023-05-10T12:27:58;5.85;;;2.95;;
66374;SDS011;53173;52.176;5.314;2023-05-10T12:30:30;5.60;;;2.72;;
66374;SDS011;53173;52.176;5.314;2023-05-10T12:33:06;2.92;;;2.55;;
66374;SDS011;53173;52.176;5.314;2023-05-10T12:36:12;2.55;;;2.25;;
66374;SDS011;53173;52.176;5.314;2023-05-10T12:38:35;2.42;;;2.00;;
66374;SDS011;53173;52.176;5.314;2023-05-10T12:41:08;4.65;;;2.10;;
66374;SDS011;53173;52.176;5.314;2023-05-10T12:43:42;3.42;;;2.10;;
66374;SDS011;53173;52.176;5.314;2023-05-10T12:46:13;4.47;;;1.73;;
66374;SDS011;53173;52.176;5.314;2023-05-10T12:48:42;2.00;;;1.90;;
66374;SDS011;53173;52.176;5.314;2023-05-10T12:51:10;2.80;;;2.17;;
66374;SDS011;53173;52.176;5.314;2023-05-10T12:56:47;4.35;;;2.00;;
66374;SDS011;53173;52.176;5.314;2023-05-10T12:59:14;6.22;;;2.55;;
66374;SDS011;53173;52.176;5.314;2023-05-10T13:01:41;2.55;;;2.35;;
66374;SDS011;53173;52.176;5.314;2023-05-10T13:06:59;3.95;;;2.55;;
66374;SDS011;53173;52.176;5.314;2023-05-10T13:09:26;3.47;;;2.90;;
66374;SDS011;53173;52.176;5.314;2023-05-10T13:11:55;4.90;;;4.45;;
66374;SDS011;53173;52.176;5.314;2023-05-10T13:14:29;10.60;;;7.65;;
66374;SDS011;53173;52.176;5.314;2023-05-10T13:17:22;14.60;;;9.43;;
66374;SDS011;53173;52.176;5.314;2023-05-10T13:19:56;12.73;;;9.10;;
66374;SDS011;53173;52.176;5.314;2023-05-10T13:25:47;10.93;;;8.38;;
66374;SDS011;53173;52.176;5.314;2023-05-10T13:28:15;12.38;;;8.90;;
66374;SDS011;53173;52.176;5.314;2023-05-10T13:30:42;10.55;;;8.13;;
66374;SDS011;53173;52.176;5.314;2023-05-10T13:33:25;15.18;;;10.27;;
66374;SDS011;53173;52.176;5.314;2023-05-10T13:35:53;13.70;;;10.15;;
66374;SDS011;53173;52.176;5.314;2023-05-10T13:38:22;15.57;;;10.27;;
66374;SDS011;53173;52.176;5.314;2023-05-10T13:40:49;19.23;;;11.43;;
66374;SDS011;53173;52.176;5.314;2023-05-10T13:43:19;15.18;;;10.07;;
66374;SDS011;53173;52.176;5.314;2023-05-10T13:45:47;19.00;;;10.50;;
66374;SDS011;53173;52.176;5.314;2023-05-10T13:48:14;18.42;;;10.73;;
66374;SDS011;53173;52.176;5.314;2023-05-10T13:50:42;18.48;;;10.68;;
66374;SDS011;53173;52.176;5.314;2023-05-10T13:53:14;14.25;;;10.57;;
66374;SDS011;53173;52.176;5.314;2023-05-10T13:55:41;15.30;;;9.93;;
66374;SDS011;53173;52.176;5.314;2023-05-10T13:58:08;16.65;;;10.00;;
66374;SDS011;53173;52.176;5.314;2023-05-10T14:00:35;18.05;;;10.00;;
66374;SDS011;53173;52.176;5.314;2023-05-10T14:03:02;17.75;;;9.90;;
66374;SDS011;53173;52.176;5.314;2023-05-10T14:05:31;13.98;;;9.90;;
66374;SDS011;53173;52.176;5.314;2023-05-10T14:07:58;20.27;;;11.70;;
66374;SDS011;53173;52.176;5.314;2023-05-10T14:10:26;13.25;;;9.98;;
66374;SDS011;53173;52.176;5.314;2023-05-10T14:12:53;12.77;;;9.07;;
66374;SDS011;53173;52.176;5.314;2023-05-10T14:15:20;13.80;;;8.80;;
66374;SDS011;53173;52.176;5.314;2023-05-10T14:17:47;14.90;;;9.68;;
66374;SDS011;53173;52.176;5.314;2023-05-10T14:20:17;11.45;;;9.25;;
66374;SDS011;53173;52.176;5.314;2023-05-10T14:22:47;12.63;;;9.18;;
66374;SDS011;53173;52.176;5.314;2023-05-10T14:25:18;12.48;;;9.80;;
66374;SDS011;53173;52.176;5.314;2023-05-10T14:27:52;15.07;;;9.77;;
66374;SDS011;53173;52.176;5.314;2023-05-10T14:30:21;15.43;;;9.38;;
66374;SDS011;53173;52.176;5.314;2023-05-10T14:32:48;12.95;;;9.13;;
66374;SDS011;53173;52.176;5.314;2023-05-10T14:35:15;14.35;;;9.30;;
66374;SDS011;53173;52.176;5.314;2023-05-10T14:37:45;15.95;;;9.15;;
66374;SDS011;53173;52.176;5.314;2023-05-10T14:40:12;14.02;;;8.80;;
66374;SDS011;53173;52.176;5.314;2023-05-10T14:42:41;12.85;;;9.20;;
66374;SDS011;53173;52.176;5.314;2023-05-10T14:45:09;14.07;;;9.52;;
66374;SDS011;53173;52.176;5.314;2023-05-10T14:47:37;11.75;;;9.02;;
66374;SDS011;53173;52.176;5.314;2023-05-10T14:50:04;12.80;;;9.32;;
66374;SDS011;53173;52.176;5.314;2023-05-10T14:52:32;13.38;;;9.35;;
66374;SDS011;53173;52.176;5.314;2023-05-10T14:54:59;13.43;;;9.45;;
66374;SDS011;53173;52.176;5.314;2023-05-10T14:57:27;12.80;;;9.23;;
66374;SDS011;53173;52.176;5.314;2023-05-10T14:59:56;13.75;;;8.93;;
66374;SDS011;53173;52.176;5.314;2023-05-10T15:02:23;14.07;;;9.30;;
66374;SDS011;53173;52.176;5.314;2023-05-10T15:04:57;12.73;;;9.05;;
66374;SDS011;53173;52.176;5.314;2023-05-10T15:07:24;12.77;;;8.82;;
66374;SDS011;53173;52.176;5.314;2023-05-10T15:09:51;16.08;;;9.65;;
66374;SDS011;53173;52.176;5.314;2023-05-10T15:12:18;12.07;;;8.93;;
66374;SDS011;53173;52.176;5.314;2023-05-10T15:15:00;16.67;;;8.85;;
66374;SDS011;53173;52.176;5.314;2023-05-10T15:17:28;14.05;;;8.82;;
66374;SDS011;53173;52.176;5.314;2023-05-10T15:19:55;11.20;;;8.30;;
66374;SDS011;53173;52.176;5.314;2023-05-10T15:22:22;11.18;;;8.43;;
66374;SDS011;53173;52.176;5.314;2023-05-10T15:24:56;11.57;;;7.47;;
66374;SDS011;53173;52.176;5.314;2023-05-10T15:27:24;8.65;;;6.90;;
66374;SDS011;53173;52.176;5.314;2023-05-10T15:29:52;8.20;;;6.80;;